createdAt,value
2019-03-04T00:01:11.443Z,87.97
2019-03-04T00:03:42.047Z,80.87
2019-03-04T00:06:12.576Z,89.60
2019-03-04T00:08:43.210Z,76.03
2019-03-04T00:11:13.753Z,81.47
2019-03-04T00:13:44.395Z,81.40
2019-03-04T00:16:14.944Z,73.07
2019-03-04T00:18:45.623Z,71.90
2019-03-04T00:21:16.463Z,72.20
2019-03-04T00:23:46.965Z,68.83
2019-03-04T00:26:17.525Z,72.90
2019-03-04T00:28:47.914Z,69.67
2019-03-04T00:31:18.469Z,59.47
2019-03-04T00:33:49.095Z,57.30
2019-03-04T00:36:23.949Z,68.17
2019-03-04T00:38:54.353Z,62.80
2019-03-04T00:41:25.199Z,76.90
2019-03-04T00:43:55.799Z,70.00
2019-03-04T00:46:26.232Z,71.00
2019-03-04T00:48:56.755Z,70.90
2019-03-04T00:51:27.535Z,63.70
2019-03-04T00:53:58.103Z,56.73
2019-03-04T00:56:28.651Z,68.67
2019-03-04T00:58:59.081Z,71.90
2019-03-04T01:01:29.567Z,61.23
2019-03-04T01:04:00.051Z,60.17
2019-03-04T01:06:30.469Z,60.63
2019-03-04T01:09:01.131Z,59.60
2019-03-04T01:11:33.216Z,61.47
2019-03-04T01:14:03.690Z,59.60
2019-03-04T01:16:36.508Z,59.43
2019-03-04T01:19:06.951Z,56.10
2019-03-04T01:21:37.489Z,54.60
2019-03-04T01:24:08.130Z,66.40
2019-03-04T01:26:38.749Z,57.80
2019-03-04T01:29:09.255Z,63.33
2019-03-04T01:31:39.933Z,54.17
2019-03-04T01:34:13.227Z,54.00
2019-03-04T01:36:43.819Z,58.17
2019-03-04T01:39:14.229Z,53.27
2019-03-04T01:41:44.871Z,50.37
2019-03-04T01:44:15.513Z,64.67
2019-03-04T01:46:46.024Z,56.13
2019-03-04T01:49:16.529Z,50.70
2019-03-04T01:51:47.286Z,46.77
2019-03-04T01:54:18.035Z,49.43
2019-03-04T01:56:48.500Z,43.57
2019-03-04T01:59:19.003Z,46.43
2019-03-04T02:01:50.048Z,44.97
2019-03-04T02:04:20.618Z,54.47
2019-03-04T02:06:51.210Z,55.90
2019-03-04T02:09:22.215Z,49.03
2019-03-04T02:11:52.724Z,61.97
2019-03-04T02:14:23.603Z,55.63
2019-03-04T02:16:54.161Z,56.53
2019-03-04T02:19:24.759Z,51.57
2019-03-04T02:21:56.411Z,52.03
2019-03-04T02:24:27.661Z,60.90
2019-03-04T02:26:59.524Z,52.97
2019-03-04T02:29:30.051Z,55.27
2019-03-04T02:32:00.892Z,49.90
2019-03-04T02:34:31.540Z,45.53
2019-03-04T02:37:01.938Z,47.57
2019-03-04T02:39:34.092Z,44.47
2019-03-04T02:42:04.789Z,45.80
2019-03-04T02:44:35.322Z,37.03
2019-03-04T02:47:05.865Z,38.30
2019-03-04T02:49:36.301Z,40.27
2019-03-04T02:52:08.595Z,36.33
2019-03-04T02:54:41.074Z,36.23
2019-03-04T02:57:13.535Z,37.37
2019-03-04T02:59:44.075Z,38.60
2019-03-04T03:02:14.645Z,35.00
2019-03-04T03:04:46.336Z,38.00
2019-03-04T03:07:17.049Z,36.27
2019-03-04T03:09:47.597Z,42.13
2019-03-04T03:12:18.099Z,40.20
2019-03-04T03:14:48.985Z,36.40
2019-03-04T03:17:19.498Z,33.67
2019-03-04T03:19:49.977Z,37.33
2019-03-04T03:22:21.417Z,34.60
2019-03-04T03:24:51.799Z,30.07
2019-03-04T03:27:22.374Z,25.93
2019-03-04T03:29:52.794Z,34.37
2019-03-04T03:32:23.264Z,32.73
2019-03-04T03:34:53.995Z,34.70
2019-03-04T03:37:24.376Z,38.33
2019-03-04T03:39:54.928Z,33.27
2019-03-04T03:42:25.385Z,34.30
2019-03-04T03:44:55.865Z,31.07
2019-03-04T03:47:26.466Z,32.90
2019-03-04T03:49:56.905Z,32.33
2019-03-04T03:52:27.504Z,28.47
2019-03-04T03:54:57.892Z,38.77
2019-03-04T03:57:28.443Z,28.93
2019-03-04T03:59:58.958Z,34.57
2019-03-04T04:02:29.465Z,27.80
2019-03-04T04:04:59.946Z,28.53
2019-03-04T04:07:30.385Z,28.20
2019-03-04T04:10:01.034Z,30.83
2019-03-04T04:12:32.115Z,28.40
2019-03-04T04:15:02.556Z,23.60
2019-03-04T04:17:34.012Z,23.93
2019-03-04T04:20:04.568Z,24.47
2019-03-04T04:22:35.061Z,34.03
2019-03-04T04:25:05.764Z,21.20
2019-03-04T04:27:36.264Z,23.97
2019-03-04T04:30:06.842Z,29.50
2019-03-04T04:32:37.280Z,32.43
2019-03-04T04:35:08.114Z,20.63
2019-03-04T04:37:38.727Z,20.30
2019-03-04T04:40:09.337Z,23.87
2019-03-04T04:42:39.814Z,23.03
2019-03-04T04:45:10.434Z,28.97
2019-03-04T04:47:40.981Z,33.03
2019-03-04T04:50:12.537Z,20.40
2019-03-04T04:52:42.992Z,18.33
2019-03-04T04:55:13.438Z,23.43
2019-03-04T04:57:44.070Z,26.87
2019-03-04T05:00:15.055Z,28.70
2019-03-04T05:02:45.539Z,20.50
2019-03-04T05:05:16.344Z,22.00
2019-03-04T05:07:46.899Z,18.23
2019-03-04T05:10:18.247Z,22.23
2019-03-04T05:12:48.803Z,19.33
2019-03-04T05:15:19.252Z,19.73
2019-03-04T05:17:49.793Z,26.17
2019-03-04T05:20:21.462Z,22.63
2019-03-04T05:22:52.046Z,19.50
2019-03-04T05:25:22.557Z,21.40
2019-03-04T05:27:53.053Z,17.83
2019-03-04T05:30:23.731Z,19.90
2019-03-04T05:32:54.214Z,19.17
2019-03-04T05:35:24.701Z,24.77
2019-03-04T05:37:55.103Z,22.77
2019-03-04T05:40:25.617Z,19.17
2019-03-04T05:42:57.103Z,23.33
2019-03-04T05:45:27.732Z,22.53
2019-03-04T05:47:58.221Z,18.53
2019-03-04T05:50:28.662Z,19.37
2019-03-04T05:52:59.114Z,28.90
2019-03-04T05:55:29.650Z,17.83
2019-03-04T05:58:00.037Z,18.60
2019-03-04T06:00:34.325Z,20.07
2019-03-04T06:03:04.959Z,18.67
2019-03-04T06:05:35.366Z,29.10
2019-03-04T06:08:06.948Z,18.70
2019-03-04T06:10:37.362Z,26.83
2019-03-04T06:13:07.782Z,23.90
2019-03-04T06:15:38.256Z,33.00
2019-03-04T06:18:08.798Z,19.33
2019-03-04T06:20:39.642Z,15.87
2019-03-04T06:23:10.060Z,17.90
2019-03-04T06:25:40.973Z,17.67
2019-03-04T06:28:11.542Z,23.57
2019-03-04T06:30:42.032Z,18.30
2019-03-04T06:33:12.430Z,17.23
2019-03-04T06:35:42.958Z,17.77
2019-03-04T06:38:13.460Z,18.13
2019-03-04T06:40:45.624Z,17.67
2019-03-04T06:43:16.301Z,15.50
2019-03-04T06:45:46.816Z,19.63
2019-03-04T06:48:17.253Z,17.20
2019-03-04T06:50:52.266Z,17.87
2019-03-04T06:53:36.480Z,18.70
2019-03-04T06:56:15.308Z,21.10
2019-03-04T06:58:48.036Z,17.90
2019-03-04T07:01:29.796Z,23.10
2019-03-04T07:04:11.452Z,16.17
2019-03-04T07:06:41.948Z,16.83
2019-03-04T07:09:20.743Z,24.47
2019-03-04T07:11:54.760Z,20.97
2019-03-04T07:14:25.184Z,26.77
2019-03-04T07:16:55.705Z,20.17
2019-03-04T07:19:27.884Z,18.20
2019-03-04T07:21:58.344Z,17.40
2019-03-04T07:24:29.922Z,26.23
2019-03-04T07:27:00.649Z,18.07
2019-03-04T07:29:31.122Z,26.97
2019-03-04T07:32:01.588Z,14.87
2019-03-04T07:34:33.773Z,21.47
2019-03-04T07:37:04.156Z,17.20
2019-03-04T07:39:34.658Z,20.47
2019-03-04T07:42:05.216Z,23.30
2019-03-04T07:44:35.756Z,16.73
2019-03-04T07:47:08.208Z,10.87
2019-03-04T07:49:38.784Z,14.83
2019-03-04T07:52:09.362Z,16.23
2019-03-04T07:54:39.852Z,21.53
2019-03-04T07:57:10.324Z,17.90
2019-03-04T07:59:40.824Z,21.83
2019-03-04T08:02:11.575Z,16.73
2019-03-04T08:04:42.430Z,19.40
2019-03-04T08:07:50.052Z,22.57
2019-03-04T08:10:43.590Z,14.13
2019-03-04T08:13:27.152Z,19.60
2019-03-04T08:15:58.986Z,15.33
2019-03-04T08:18:29.459Z,16.93
2019-03-04T08:21:00.102Z,15.33
2019-03-04T08:23:30.824Z,16.27
2019-03-04T08:26:01.264Z,12.23
2019-03-04T08:28:31.756Z,17.37
2019-03-04T08:31:02.183Z,15.90
2019-03-04T08:33:32.684Z,18.40
2019-03-04T08:36:03.264Z,15.50
2019-03-04T08:38:33.783Z,20.52
2019-03-04T08:41:04.230Z,21.12
2019-03-04T08:43:34.694Z,14.07
2019-03-04T08:46:05.204Z,13.05
2019-03-04T08:48:35.600Z,16.12
2019-03-04T08:51:07.102Z,9.73
2019-03-04T08:53:37.560Z,13.43
2019-03-04T08:56:08.052Z,11.48
2019-03-04T08:58:38.508Z,11.65
2019-03-04T09:01:09.079Z,11.30
2019-03-04T09:03:41.730Z,9.78
2019-03-04T09:06:12.449Z,14.90
2019-03-04T09:08:43.124Z,10.13
2019-03-04T09:11:13.726Z,11.88
2019-03-04T09:13:44.256Z,17.10
2019-03-04T09:16:14.676Z,14.03
2019-03-04T09:18:45.764Z,16.50
2019-03-04T09:21:16.458Z,37.03
2019-03-04T09:23:46.958Z,13.03
2019-03-04T09:26:18.246Z,13.35
2019-03-04T09:28:48.934Z,13.95
2019-03-04T09:31:19.504Z,14.20
2019-03-04T09:33:50.294Z,10.82
2019-03-04T09:36:20.704Z,13.18
2019-03-04T09:38:51.242Z,13.38
2019-03-04T09:41:21.710Z,16.40
2019-03-04T09:43:52.293Z,13.93
2019-03-04T09:46:23.285Z,17.37
2019-03-04T09:48:53.612Z,19.80
2019-03-04T09:51:24.808Z,23.70
2019-03-04T09:53:55.486Z,24.35
2019-03-04T09:56:26.240Z,13.45
2019-03-04T09:58:57.731Z,13.90
2019-03-04T10:01:32.836Z,15.83
2019-03-04T10:04:26.613Z,13.62
2019-03-04T10:07:31.745Z,12.55
2019-03-04T10:11:01.376Z,9.63
2019-03-04T10:14:21.879Z,11.28
2019-03-04T10:17:33.400Z,11.63
2019-03-04T10:20:43.158Z,11.03
2019-03-04T10:23:54.717Z,15.58
2019-03-04T10:27:02.213Z,14.15
2019-03-04T10:30:37.998Z,15.08
2019-03-04T10:36:59.431Z,8.78
2019-03-04T10:39:59.448Z,10.15
2019-03-04T10:43:07.187Z,12.47
2019-03-04T10:45:55.302Z,11.97
2019-03-04T10:48:26.196Z,7.92
2019-03-04T10:50:56.798Z,9.43
2019-03-04T10:53:27.218Z,7.90
2019-03-04T10:55:57.751Z,6.67
2019-03-04T10:58:28.232Z,7.97
2019-03-04T11:00:58.817Z,8.28
2019-03-04T11:03:29.399Z,10.48
2019-03-04T11:06:00.136Z,11.08
2019-03-04T11:08:30.516Z,12.58
2019-03-04T11:11:01.175Z,8.38
2019-03-04T11:13:31.576Z,6.03
2019-03-04T11:16:03.270Z,5.55
2019-03-04T11:18:35.080Z,7.50
2019-03-04T11:21:06.236Z,9.33
2019-03-04T11:23:36.755Z,7.65
2019-03-04T11:26:07.202Z,8.35
2019-03-04T11:28:37.690Z,23.18
2019-03-04T11:31:08.294Z,114.32
2019-03-04T11:33:38.871Z,7.40
2019-03-04T11:36:09.347Z,11.55
2019-03-04T11:38:42.580Z,12.05
2019-03-04T11:41:16.943Z,10.65
2019-03-04T11:43:48.312Z,11.57
2019-03-04T11:46:21.024Z,8.40
2019-03-04T11:48:53.090Z,12.07
2019-03-04T11:51:23.579Z,8.08
2019-03-04T11:53:54.086Z,9.08
2019-03-04T11:56:24.940Z,12.98
2019-03-04T11:58:55.402Z,10.72
2019-03-04T12:01:45.088Z,12.88
2019-03-04T12:04:15.730Z,7.72
2019-03-04T12:06:46.274Z,10.67
2019-03-04T12:09:17.287Z,9.63
2019-03-04T12:11:48.148Z,13.03
2019-03-04T12:14:18.628Z,16.73
2019-03-04T12:16:49.179Z,9.80
2019-03-04T12:19:20.018Z,11.83
2019-03-04T12:21:50.543Z,5.87
2019-03-04T12:24:21.940Z,12.60
2019-03-04T12:26:53.612Z,10.53
2019-03-04T12:29:24.182Z,8.60
2019-03-04T12:32:16.632Z,15.73
2019-03-04T12:34:47.131Z,10.43
2019-03-04T12:37:17.716Z,11.00
2019-03-04T12:39:48.194Z,5.42
2019-03-04T12:53:37.586Z,13.95
2019-03-04T12:56:07.076Z,24.15
2019-03-04T12:58:37.952Z,13.15
2019-03-04T13:01:09.301Z,10.05
2019-03-04T13:03:39.700Z,6.17
2019-03-04T13:06:10.080Z,12.00
2019-03-04T13:08:40.559Z,8.68
2019-03-04T13:11:10.923Z,12.28
2019-03-04T13:13:42.785Z,6.65
2019-03-04T13:16:13.566Z,6.97
2019-03-04T13:18:44.639Z,10.45
2019-03-04T13:21:15.599Z,6.53
2019-03-04T13:23:46.025Z,6.45
2019-03-04T13:26:16.946Z,8.40
2019-03-04T13:28:47.547Z,14.25
2019-03-04T13:31:18.380Z,7.87
2019-03-04T13:33:49.031Z,9.03
2019-03-04T13:36:19.826Z,9.53
2019-03-04T13:38:50.535Z,9.53
2019-03-04T13:41:21.059Z,16.53
2019-03-04T13:43:52.806Z,10.20
2019-03-04T13:46:23.215Z,8.93
2019-03-04T13:48:55.681Z,17.10
2019-03-04T13:51:25.682Z,8.75
2019-03-04T13:53:56.161Z,19.52
2019-03-04T13:56:26.874Z,12.98
2019-03-04T13:58:57.529Z,18.47
2019-03-04T14:01:28.016Z,12.78
2019-03-04T14:03:58.536Z,9.38
2019-03-04T14:06:28.958Z,10.05
2019-03-04T14:08:59.425Z,6.17
2019-03-04T14:11:30.039Z,9.77
2019-03-04T14:14:02.540Z,11.60
2019-03-04T14:16:33.039Z,8.43
2019-03-04T14:19:03.877Z,9.13
2019-03-04T14:21:34.568Z,12.07
2019-03-04T14:24:05.157Z,6.45
2019-03-04T14:26:35.590Z,8.07
2019-03-04T14:29:06.126Z,12.43
2019-03-04T14:31:36.839Z,10.10
2019-03-04T14:34:07.181Z,14.27
2019-03-04T14:36:37.904Z,7.27
2019-03-04T14:39:15.227Z,14.07
2019-03-04T14:41:45.689Z,8.20
2019-03-04T14:44:16.291Z,14.13
2019-03-04T14:46:46.905Z,9.90
2019-03-04T14:49:17.391Z,8.30
2019-03-04T14:51:48.119Z,12.28
2019-03-04T14:54:18.550Z,11.57
2019-03-04T14:56:49.100Z,13.62
2019-03-04T14:59:19.828Z,7.83
2019-03-04T15:01:51.659Z,11.87
2019-03-04T15:04:22.106Z,11.40
2019-03-04T15:06:52.602Z,9.67
2019-03-04T15:09:23.103Z,10.57
2019-03-04T15:11:53.582Z,12.77
2019-03-04T15:14:24.125Z,15.37
2019-03-04T15:17:03.044Z,6.50
2019-03-04T15:19:26.847Z,12.27
2019-03-04T15:21:57.558Z,9.97
2019-03-04T15:24:28.040Z,9.70
2019-03-04T15:26:58.449Z,12.83
2019-03-04T15:29:28.890Z,9.73
2019-03-04T15:31:59.643Z,9.83
2019-03-04T15:34:30.479Z,10.43
2019-03-04T15:37:01.177Z,9.13
2019-03-04T15:39:31.572Z,10.33
2019-03-04T15:42:03.366Z,11.13
2019-03-04T15:44:33.916Z,11.90
2019-03-04T15:47:04.452Z,10.40
2019-03-04T15:49:35.056Z,19.37
2019-03-04T15:52:06.866Z,11.57
2019-03-04T15:54:37.364Z,12.73
2019-03-04T15:57:08.384Z,11.47
2019-03-04T15:59:39.012Z,6.87
2019-03-04T16:02:12.671Z,8.77
2019-03-04T16:04:43.679Z,9.83
2019-03-04T16:07:15.497Z,11.07
2019-03-04T16:09:46.190Z,11.60
2019-03-04T16:12:18.942Z,8.97
2019-03-04T16:14:49.671Z,12.43
2019-03-04T16:17:20.456Z,8.37
2019-03-04T16:19:51.787Z,11.33
2019-03-04T16:22:22.255Z,13.60
2019-03-04T16:24:52.709Z,8.47
2019-03-04T16:27:24.370Z,8.80
2019-03-04T16:29:54.937Z,7.43
2019-03-04T16:32:25.565Z,10.80
2019-03-04T16:34:56.027Z,8.90
2019-03-04T16:37:26.582Z,7.80
2019-03-04T16:39:57.057Z,9.63
2019-03-04T16:42:27.912Z,9.37
2019-03-04T16:44:58.335Z,13.83
2019-03-04T16:47:28.956Z,11.03
2019-03-04T16:49:59.381Z,9.97
2019-03-04T16:52:31.661Z,11.93
2019-03-04T16:55:02.189Z,11.33
2019-03-04T16:57:32.727Z,11.93
2019-03-04T17:00:03.813Z,9.97
2019-03-04T17:02:36.020Z,8.80
2019-03-04T17:05:07.856Z,9.70
2019-03-04T17:07:38.410Z,10.97
2019-03-04T17:10:10.577Z,9.57
2019-03-04T17:12:41.348Z,12.23
2019-03-04T17:15:14.416Z,9.70
2019-03-04T17:17:44.890Z,9.17
2019-03-04T17:20:17.804Z,11.43
2019-03-04T17:22:48.965Z,9.93
2019-03-04T17:25:19.761Z,17.67
2019-03-04T17:27:50.492Z,13.37
2019-03-04T17:30:21.079Z,13.10
2019-03-04T17:32:51.966Z,11.57
2019-03-04T17:35:22.942Z,11.53
2019-03-04T17:37:53.592Z,13.70
2019-03-04T17:40:25.143Z,14.20
2019-03-04T17:42:56.001Z,14.37
2019-03-04T17:45:26.692Z,12.27
2019-03-04T17:47:57.150Z,11.03
2019-03-04T17:50:33.105Z,11.70
2019-03-04T17:53:04.770Z,13.60
2019-03-04T17:55:35.700Z,14.50
2019-03-04T17:58:06.701Z,13.87
2019-03-04T18:00:39.582Z,15.43
2019-03-04T18:03:10.019Z,17.30
2019-03-04T18:05:40.931Z,16.00
2019-03-04T18:08:11.645Z,13.37
2019-03-04T18:10:43.128Z,15.67
2019-03-04T18:13:14.141Z,15.00
2019-03-04T18:15:44.529Z,14.83
2019-03-04T18:18:15.367Z,12.37
2019-03-04T18:20:46.384Z,16.63
2019-03-04T18:23:17.213Z,14.90
2019-03-04T18:26:00.945Z,11.60
2019-03-04T18:29:09.307Z,12.23
2019-03-04T18:32:02.872Z,13.60
2019-03-04T18:35:09.095Z,21.23
2019-03-04T18:38:06.617Z,14.17
2019-03-04T18:40:49.717Z,18.03
2019-03-04T18:43:33.563Z,14.83
2019-03-04T18:46:44.033Z,15.40
2019-03-04T18:49:14.950Z,14.97
2019-03-04T18:51:45.456Z,13.83
2019-03-04T18:54:20.354Z,16.33
2019-03-04T18:56:51.275Z,10.73
2019-03-04T18:59:22.171Z,14.77
2019-03-04T19:01:53.345Z,15.40
2019-03-04T19:04:24.367Z,21.33
2019-03-04T19:06:55.945Z,17.83
2019-03-04T19:09:26.414Z,13.37
2019-03-04T19:11:57.513Z,16.53
2019-03-04T19:14:28.062Z,12.83
2019-03-04T19:16:58.975Z,12.90
2019-03-04T19:19:29.356Z,12.53
2019-03-04T19:21:59.900Z,33.33
2019-03-04T19:24:30.563Z,16.40
2019-03-04T19:27:01.201Z,15.30
2019-03-04T19:29:33.297Z,14.17
2019-03-04T19:32:03.965Z,18.63
2019-03-04T19:34:35.883Z,10.77
2019-03-04T19:37:06.386Z,10.47
2019-03-04T19:39:38.175Z,17.33
2019-03-04T19:42:09.048Z,11.70
2019-03-04T19:44:40.675Z,11.53
2019-03-04T19:47:10.999Z,13.60
2019-03-04T19:49:41.534Z,19.87
2019-03-04T19:52:12.171Z,34.63
2019-03-04T19:54:42.850Z,13.27
2019-03-04T19:57:13.409Z,11.73
2019-03-04T19:59:43.959Z,11.63
2019-03-04T20:02:16.423Z,31.70
2019-03-04T20:04:47.103Z,10.50
2019-03-04T20:07:19.091Z,9.43
2019-03-04T20:09:50.241Z,12.33
2019-03-04T20:12:21.143Z,9.87
2019-03-04T20:14:52.409Z,13.13
2019-03-04T20:17:22.951Z,10.77
2019-03-04T20:19:53.885Z,13.43
2019-03-04T20:22:24.313Z,22.77
2019-03-04T20:24:55.040Z,13.07
2019-03-04T20:27:25.844Z,13.60
2019-03-04T20:29:56.296Z,21.10
2019-03-04T20:32:26.801Z,14.83
2019-03-04T20:34:57.225Z,13.33
2019-03-04T20:37:28.649Z,14.47
2019-03-04T20:39:59.201Z,16.03
2019-03-04T20:42:29.633Z,12.17
2019-03-04T20:45:00.399Z,16.67
2019-03-04T20:47:31.046Z,20.97
2019-03-04T20:50:01.629Z,12.53
2019-03-04T20:52:33.577Z,10.03
2019-03-04T20:55:04.339Z,17.20
2019-03-04T20:57:36.110Z,12.43
2019-03-04T21:00:08.779Z,10.03
2019-03-04T21:02:39.929Z,15.33
2019-03-04T21:05:13.240Z,7.97
2019-03-04T21:07:44.306Z,9.47
2019-03-04T21:10:15.655Z,9.87
2019-03-04T21:12:47.577Z,10.67
2019-03-04T21:15:20.114Z,9.23
2019-03-04T21:17:51.359Z,11.80
2019-03-04T21:20:21.866Z,11.03
2019-03-04T21:22:52.774Z,9.33
2019-03-04T21:25:59.044Z,11.30
2019-03-04T21:29:16.247Z,8.73
2019-03-04T21:31:51.916Z,12.73
2019-03-04T21:35:17.565Z,11.30
2019-03-04T21:37:49.725Z,9.33
2019-03-04T21:41:00.419Z,8.27
2019-03-04T21:43:36.102Z,11.50
2019-03-04T21:46:43.767Z,10.90
2019-03-04T21:49:15.687Z,10.60
2019-03-04T21:52:30.612Z,10.07
2019-03-04T21:55:02.495Z,10.93
2019-03-04T21:57:40.121Z,9.20
2019-03-04T22:00:15.955Z,7.90
2019-03-04T22:03:00.336Z,8.10
2019-03-04T22:05:30.901Z,6.47
2019-03-04T22:08:01.774Z,7.30
2019-03-04T22:10:32.893Z,10.07
2019-03-04T22:13:04.051Z,9.47
2019-03-04T22:15:35.301Z,7.83
2019-03-04T22:18:07.750Z,8.73
2019-03-04T22:20:38.094Z,7.67
2019-03-04T22:23:09.047Z,9.27
2019-03-04T22:25:40.487Z,7.70
2019-03-04T22:28:10.951Z,6.10
2019-03-04T22:30:41.770Z,7.00
2019-03-04T22:33:12.366Z,6.27
2019-03-04T22:35:44.634Z,9.03
2019-03-04T22:38:15.172Z,9.73
2019-03-04T22:40:45.670Z,3.93
2019-03-04T22:43:16.123Z,8.43
2019-03-04T22:45:48.080Z,6.40
2019-03-04T22:48:18.706Z,6.63
2019-03-04T22:50:49.456Z,6.87
2019-03-04T22:53:21.425Z,7.80
2019-03-04T22:55:52.312Z,8.33
2019-03-04T22:58:28.708Z,7.53
2019-03-04T23:01:37.053Z,5.43
2019-03-04T23:04:19.403Z,6.87
2019-03-04T23:06:54.916Z,5.50
2019-03-04T23:09:26.941Z,7.90
2019-03-04T23:12:05.766Z,6.73
2019-03-04T23:14:36.344Z,11.63
2019-03-04T23:17:06.996Z,10.40
2019-03-04T23:19:37.413Z,10.10
2019-03-04T23:22:07.882Z,6.17
2019-03-04T23:24:38.333Z,10.43
2019-03-04T23:27:08.896Z,4.57
2019-03-04T23:29:39.508Z,4.77
2019-03-04T23:32:11.828Z,11.07
2019-03-04T23:34:42.432Z,7.23
2019-03-04T23:37:13.162Z,3.40
2019-03-04T23:39:43.884Z,4.53
2019-03-04T23:42:16.326Z,4.40
2019-03-04T23:44:46.738Z,7.77
2019-03-04T23:47:18.648Z,4.20
2019-03-04T23:49:50.862Z,2.97
2019-03-04T23:52:21.572Z,5.40
2019-03-04T23:54:52.077Z,3.63
2019-03-04T23:57:23.046Z,1.57
2019-03-04T23:59:53.506Z,4.00
